createdAt,value
2022-10-17T00:01:10.793Z,99213.27
2022-10-17T00:03:39.808Z,99213.86
2022-10-17T00:06:10.925Z,99213.06
2022-10-17T00:08:41.067Z,99214.19
2022-10-17T00:11:15.574Z,99217.28
2022-10-17T00:13:44.075Z,99221.72
2022-10-17T00:16:12.397Z,99220.34
2022-10-17T00:18:40.982Z,99221.66
2022-10-17T00:21:16.094Z,99225.02
2022-10-17T00:23:44.137Z,99228.46
2022-10-17T00:26:12.464Z,99229.38
2022-10-17T00:28:40.556Z,99229.63
2022-10-17T00:31:08.592Z,99233.13
2022-10-17T00:33:36.922Z,99234.40
2022-10-17T00:36:15.336Z,99232.95
2022-10-17T00:38:45.868Z,99231.66
2022-10-17T00:41:16.909Z,99233.36
2022-10-17T00:43:56.617Z,99232.66
2022-10-17T00:46:29.100Z,99232.27
2022-10-17T00:48:59.215Z,99232.73
2022-10-17T00:51:41.745Z,99234.41
2022-10-17T00:54:11.754Z,99234.16
2022-10-17T00:56:40.602Z,99233.29
2022-10-17T00:59:11.096Z,99237.23
2022-10-17T01:01:47.249Z,99240.63
2022-10-17T01:04:15.851Z,99242.03
2022-10-17T01:06:43.857Z,99245.16
2022-10-17T01:09:11.871Z,99245.99
2022-10-17T01:11:45.232Z,99240.54
2022-10-17T01:14:43.862Z,99243.02
2022-10-17T01:17:23.652Z,99240.55
2022-10-17T01:20:12.971Z,99240.91
2022-10-17T01:22:49.497Z,99244.05
2022-10-17T01:25:36.529Z,99246.07
2022-10-17T01:28:39.467Z,99250.23
2022-10-17T01:31:16.637Z,99251.88
2022-10-17T01:33:51.314Z,99246.79
2022-10-17T01:36:50.198Z,99245.17
2022-10-17T01:39:28.101Z,99248.61
2022-10-17T01:42:10.340Z,99247.36
2022-10-17T01:44:47.130Z,99243.58
2022-10-17T01:47:20.189Z,99246.34
2022-10-17T01:49:52.726Z,99251.94
2022-10-17T01:52:23.963Z,99258.05
2022-10-17T01:54:56.999Z,99261.06
2022-10-17T01:57:32.451Z,99264.84
2022-10-17T02:00:02.811Z,99264.17
2022-10-17T02:02:43.956Z,99268.21
2022-10-17T02:05:12.706Z,99272.36
2022-10-17T02:07:42.042Z,99278.63
2022-10-17T02:10:25.938Z,99278.23
2022-10-17T02:13:07.628Z,99274.80
2022-10-17T02:16:40.279Z,99279.59
2022-10-17T02:19:29.272Z,99283.84
2022-10-17T02:22:31.490Z,99287.06
2022-10-17T02:25:29.675Z,99285.70
2022-10-17T02:28:13.625Z,99286.58
2022-10-17T02:30:50.052Z,99291.38
2022-10-17T02:33:31.011Z,99291.89
2022-10-17T02:36:09.027Z,99296.34
2022-10-17T02:38:39.353Z,99295.16
2022-10-17T02:41:11.588Z,99296.15
2022-10-17T02:43:40.093Z,99296.86
2022-10-17T02:46:08.390Z,99296.02
2022-10-17T02:48:44.309Z,99300.69
2022-10-17T02:51:30.876Z,99292.14
2022-10-17T02:54:17.088Z,99292.72
2022-10-17T02:56:55.197Z,99300.38
2022-10-17T02:59:26.740Z,99304.80
2022-10-17T03:01:55.281Z,99308.45
2022-10-17T03:04:23.559Z,99302.88
2022-10-17T03:06:51.545Z,99302.52
2022-10-17T03:09:19.803Z,99306.00
2022-10-17T03:11:47.831Z,99304.19
2022-10-17T03:14:15.988Z,99304.19
2022-10-17T03:16:44.002Z,99306.06
2022-10-17T03:19:11.879Z,99307.32
2022-10-17T03:21:40.257Z,99309.13
2022-10-17T03:24:08.701Z,99313.29
2022-10-17T03:26:37.077Z,99316.45
2022-10-17T03:29:05.941Z,99318.92
2022-10-17T03:31:34.602Z,99319.78
2022-10-17T03:34:03.662Z,99318.92
2022-10-17T03:36:31.612Z,99322.59
2022-10-17T03:38:59.564Z,99325.90
2022-10-17T03:41:28.598Z,99326.85
2022-10-17T03:43:56.579Z,99327.79
2022-10-17T03:46:24.882Z,99327.63
2022-10-17T03:48:53.636Z,99331.78
2022-10-17T03:51:22.238Z,99334.05
2022-10-17T03:53:54.113Z,99337.48
2022-10-17T03:56:25.467Z,99338.77
2022-10-17T03:59:00.552Z,99335.22
2022-10-17T04:01:29.229Z,99339.08
2022-10-17T04:03:57.946Z,99340.07
2022-10-17T04:06:28.206Z,99343.87
2022-10-17T04:08:56.279Z,99338.14
2022-10-17T04:11:40.058Z,99337.89
2022-10-17T04:14:10.029Z,99335.02
2022-10-17T04:16:39.201Z,99337.29
2022-10-17T04:19:13.913Z,99334.71
2022-10-17T04:21:44.989Z,99334.56
2022-10-17T04:24:13.122Z,99339.00
2022-10-17T04:26:59.658Z,99341.13
2022-10-17T04:29:29.960Z,99339.48
2022-10-17T04:32:07.066Z,99340.91
2022-10-17T04:34:40.968Z,99340.17
2022-10-17T04:37:09.059Z,99340.16
2022-10-17T04:39:37.868Z,99333.13
2022-10-17T04:42:06.473Z,99337.23
2022-10-17T04:44:35.811Z,99336.35
2022-10-17T04:47:03.920Z,99336.52
2022-10-17T04:49:32.318Z,99336.95
2022-10-17T04:52:07.587Z,99340.05
2022-10-17T04:54:46.326Z,99341.95
2022-10-17T04:57:15.183Z,99340.34
2022-10-17T04:59:48.013Z,99340.51
2022-10-17T05:02:30.773Z,99342.36
2022-10-17T05:04:59.928Z,99346.50
2022-10-17T05:07:28.105Z,99351.64
2022-10-17T05:10:05.725Z,99353.31
2022-10-17T05:12:34.101Z,99354.99
2022-10-17T05:15:02.176Z,99357.21
2022-10-17T05:17:30.406Z,99362.87
2022-10-17T05:19:59.250Z,99366.40
2022-10-17T05:22:27.614Z,99370.48
2022-10-17T05:24:57.081Z,99375.17
2022-10-17T05:27:25.094Z,99376.34
2022-10-17T05:29:53.161Z,99377.73
2022-10-17T05:32:25.968Z,99383.10
2022-10-17T05:34:54.293Z,99387.70
2022-10-17T05:37:22.804Z,99393.70
2022-10-17T05:39:52.558Z,99398.00
2022-10-17T05:42:20.781Z,99402.13
2022-10-17T05:44:49.188Z,99404.05
2022-10-17T05:47:19.027Z,99403.75
2022-10-17T05:49:52.116Z,99410.08
2022-10-17T05:52:23.343Z,99407.77
2022-10-17T05:55:12.709Z,99417.66
2022-10-17T05:57:40.913Z,99419.88
2022-10-17T06:00:13.639Z,99421.73
2022-10-17T06:02:46.751Z,99426.91
2022-10-17T06:05:16.939Z,99429.59
2022-10-17T06:07:45.535Z,99428.83
2022-10-17T06:10:16.647Z,99428.64
2022-10-17T06:12:45.686Z,99429.46
2022-10-17T06:15:13.738Z,99433.41
2022-10-17T06:17:45.148Z,99435.77
2022-10-17T06:20:13.098Z,99434.98
2022-10-17T06:22:41.216Z,99434.25
2022-10-17T06:25:15.101Z,99437.50
2022-10-17T06:28:00.273Z,99437.71
2022-10-17T06:30:30.761Z,99431.29
2022-10-17T06:32:58.856Z,99433.30
2022-10-17T06:35:26.907Z,99434.89
2022-10-17T06:37:54.996Z,99438.89
2022-10-17T06:40:23.726Z,99438.71
2022-10-17T06:42:51.959Z,99443.14
2022-10-17T06:45:40.201Z,99443.15
2022-10-17T06:48:22.049Z,99442.20
2022-10-17T06:51:12.212Z,99440.47
2022-10-17T06:53:53.629Z,99445.79
2022-10-17T06:56:45.721Z,99446.82
2022-10-17T06:59:16.503Z,99448.39
2022-10-17T07:01:52.655Z,99450.89
2022-10-17T07:04:20.660Z,99451.95
2022-10-17T07:06:48.663Z,99454.47
2022-10-17T07:09:19.719Z,99453.20
2022-10-17T07:11:47.951Z,99457.72
2022-10-17T07:14:19.288Z,99455.44
2022-10-17T07:16:50.109Z,99460.35
2022-10-17T07:19:24.708Z,99462.88
2022-10-17T07:21:54.110Z,99464.55
2022-10-17T07:24:24.667Z,99464.17
2022-10-17T07:27:07.105Z,99468.95
2022-10-17T07:29:35.176Z,99472.86
2022-10-17T07:32:09.829Z,99471.69
2022-10-17T07:34:38.176Z,99472.91
2022-10-17T07:37:07.504Z,99474.91
2022-10-17T07:39:37.688Z,99479.71
2022-10-17T07:42:07.545Z,99477.48
2022-10-17T07:44:35.981Z,99479.70
2022-10-17T07:47:04.629Z,99478.33
2022-10-17T07:49:32.654Z,99478.52
2022-10-17T07:52:00.603Z,99475.84
2022-10-17T07:54:28.697Z,99479.14
2022-10-17T07:56:56.841Z,99475.23
2022-10-17T07:59:24.902Z,99478.02
2022-10-17T08:01:56.063Z,99472.56
2022-10-17T08:04:24.408Z,99478.23
2022-10-17T08:06:56.521Z,99479.76
2022-10-17T08:09:33.625Z,99478.32
2022-10-17T08:12:01.720Z,99478.54
2022-10-17T08:14:29.628Z,99479.84
2022-10-17T08:16:57.504Z,99480.44
2022-10-17T08:19:25.552Z,99480.98
2022-10-17T08:21:54.538Z,99476.70
2022-10-17T08:24:22.627Z,99472.37
2022-10-17T08:26:51.855Z,99474.87
2022-10-17T08:29:20.297Z,99474.64
2022-10-17T08:31:49.924Z,99478.90
2022-10-17T08:34:19.184Z,99480.45
2022-10-17T08:36:47.105Z,99480.79
2022-10-17T08:39:15.208Z,99481.48
2022-10-17T08:41:58.480Z,99483.73
2022-10-17T08:44:48.239Z,99489.29
2022-10-17T08:47:27.509Z,99492.55
2022-10-17T08:50:00.789Z,99497.98
2022-10-17T08:52:38.183Z,99498.11
2022-10-17T08:55:16.676Z,99497.52
2022-10-17T08:57:44.844Z,99492.63
2022-10-17T09:00:21.648Z,99492.21
2022-10-17T09:03:08.056Z,99493.95
2022-10-17T09:05:53.752Z,99499.55
2022-10-17T09:08:33.550Z,99498.14
2022-10-17T09:11:29.805Z,99489.61
2022-10-17T09:14:33.314Z,99486.77
2022-10-17T09:17:23.067Z,99483.81
2022-10-17T09:20:20.658Z,99488.60
2022-10-17T09:22:51.287Z,99490.92
2022-10-17T09:25:22.012Z,99493.21
2022-10-17T09:27:54.656Z,99492.25
2022-10-17T09:30:43.621Z,99492.45
2022-10-17T09:33:23.256Z,99489.84
2022-10-17T09:36:04.532Z,99492.71
2022-10-17T09:38:58.378Z,99489.16
2022-10-17T09:41:49.509Z,99491.88
2022-10-17T09:44:35.599Z,99494.12
2022-10-17T09:47:35.210Z,99493.73
2022-10-17T09:50:03.411Z,99488.05
2022-10-17T09:52:47.851Z,99485.02
2022-10-17T09:55:34.650Z,99486.92
2022-10-17T09:58:05.742Z,99483.89
2022-10-17T10:00:43.986Z,99478.34
2022-10-17T10:03:26.546Z,99474.43
2022-10-17T10:05:59.632Z,99474.56
2022-10-17T10:08:36.605Z,99474.27
2022-10-17T10:11:09.624Z,99477.23
2022-10-17T10:13:43.373Z,99470.95
2022-10-17T10:16:24.515Z,99470.54
2022-10-17T10:18:52.909Z,99464.94
2022-10-17T10:21:23.861Z,99466.20
2022-10-17T10:24:10.408Z,99461.33
2022-10-17T10:26:46.047Z,99462.54
2022-10-17T10:29:32.922Z,99461.89
2022-10-17T10:32:22.895Z,99457.42
2022-10-17T10:34:54.147Z,99455.55
2022-10-17T10:37:36.805Z,99456.97
2022-10-17T10:40:15.689Z,99453.03
2022-10-17T10:42:51.571Z,99449.00
2022-10-17T10:45:46.431Z,99447.97
2022-10-17T10:48:37.192Z,99442.24
2022-10-17T10:51:19.801Z,99434.03
2022-10-17T10:54:04.189Z,99429.64
2022-10-17T10:56:43.913Z,99423.38
2022-10-17T10:59:26.227Z,99420.97
2022-10-17T11:01:56.692Z,99416.39
2022-10-17T11:04:37.648Z,99418.03
2022-10-17T11:07:28.908Z,99414.60
2022-10-17T11:10:00.283Z,99414.45
2022-10-17T11:12:35.380Z,99413.90
2022-10-17T11:15:09.625Z,99409.45
2022-10-17T11:17:51.212Z,99409.92
2022-10-17T11:20:34.335Z,99403.63
2022-10-17T11:23:29.005Z,99401.98
2022-10-17T11:26:01.639Z,99401.18
2022-10-17T11:28:31.000Z,99398.08
2022-10-17T11:31:12.820Z,99398.51
2022-10-17T11:33:46.958Z,99397.48
2022-10-17T11:36:21.574Z,99387.34
2022-10-17T11:39:01.841Z,99389.86
2022-10-17T11:41:40.222Z,99386.73
2022-10-17T11:44:23.574Z,99386.99
2022-10-17T11:46:57.738Z,99386.59
2022-10-17T11:49:36.857Z,99382.20
2022-10-17T11:52:26.999Z,99377.30
2022-10-17T11:55:23.219Z,99376.90
2022-10-17T11:58:10.124Z,99378.43
2022-10-17T12:01:13.034Z,99373.91
2022-10-17T12:04:18.812Z,99372.65
2022-10-17T12:07:17.900Z,99373.37
2022-10-17T12:09:59.596Z,99371.67
2022-10-17T12:12:31.260Z,99370.95
2022-10-17T12:15:26.307Z,99373.11
2022-10-17T12:17:59.312Z,99368.92
2022-10-17T12:20:28.819Z,99364.97
2022-10-17T12:23:12.059Z,99362.84
2022-10-17T12:25:52.103Z,99358.54
2022-10-17T12:28:34.495Z,99359.23
2022-10-17T12:31:19.069Z,99358.02
2022-10-17T12:33:49.972Z,99353.63
2022-10-17T12:36:27.007Z,99351.58
2022-10-17T12:39:04.348Z,99348.11
2022-10-17T12:41:38.140Z,99344.34
2022-10-17T12:44:15.516Z,99343.11
2022-10-17T12:46:49.504Z,99341.70
2022-10-17T12:49:38.397Z,99341.41
2022-10-17T12:52:23.787Z,99338.77
2022-10-17T12:55:07.447Z,99334.08
2022-10-17T12:58:05.126Z,99335.83
2022-10-17T13:00:59.513Z,99335.84
2022-10-17T13:03:35.297Z,99331.39
2022-10-17T13:06:06.908Z,99329.53
2022-10-17T13:08:43.423Z,99328.71
2022-10-17T13:11:13.751Z,99333.36
2022-10-17T13:13:48.981Z,99337.58
2022-10-17T13:16:40.195Z,99339.34
2022-10-17T13:19:16.845Z,99336.23
2022-10-17T13:22:05.991Z,99333.56
2022-10-17T13:24:40.860Z,99337.52
2022-10-17T13:27:32.152Z,99340.40
2022-10-17T13:30:31.104Z,99341.02
2022-10-17T13:33:02.023Z,99341.63
2022-10-17T13:35:59.081Z,99344.19
2022-10-17T13:38:28.482Z,99341.79
2022-10-17T13:41:22.947Z,99341.81
2022-10-17T13:43:50.641Z,99340.48
2022-10-17T13:46:38.978Z,99340.79
2022-10-17T13:49:18.109Z,99337.42
2022-10-17T13:51:50.257Z,99333.96
2022-10-17T13:54:33.688Z,99339.42
2022-10-17T13:57:03.173Z,99335.78
2022-10-17T13:59:39.849Z,99335.41
2022-10-17T14:02:16.402Z,99330.45
2022-10-17T14:05:14.921Z,99330.04
2022-10-17T14:08:22.046Z,99327.52
2022-10-17T14:10:50.548Z,99321.52
2022-10-17T14:13:25.273Z,99319.04
2022-10-17T14:15:56.408Z,99323.45
2022-10-17T14:18:35.897Z,99325.27
2022-10-17T14:24:34.166Z,99319.13
2022-10-17T14:27:02.286Z,99315.85
2022-10-17T14:29:33.296Z,99315.71
2022-10-17T14:32:06.458Z,99316.91
2022-10-17T14:34:37.702Z,99316.45
2022-10-17T14:37:24.476Z,99313.45
2022-10-17T14:39:55.158Z,99312.80
2022-10-17T14:42:23.455Z,99311.59
2022-10-17T14:44:54.467Z,99316.25
2022-10-17T14:47:44.014Z,99320.14
2022-10-17T14:50:12.928Z,99319.08
2022-10-17T14:52:43.235Z,99318.05
2022-10-17T14:55:24.307Z,99319.80
2022-10-17T14:57:52.661Z,99320.67
2022-10-17T15:00:22.704Z,99320.84
2022-10-17T15:02:52.688Z,99321.45
2022-10-17T15:05:23.189Z,99322.33
2022-10-17T15:07:51.928Z,99319.45
2022-10-17T15:10:33.368Z,99324.05
2022-10-17T15:13:27.237Z,99322.98
2022-10-17T15:15:52.473Z,99317.98
2022-10-17T15:18:20.717Z,99318.27
2022-10-17T15:20:55.284Z,99320.39
2022-10-17T15:23:32.779Z,99317.70
2022-10-17T15:26:01.863Z,99315.16
2022-10-17T15:28:29.893Z,99315.72
2022-10-17T15:30:57.980Z,99319.92
2022-10-17T15:33:25.999Z,99318.94
2022-10-17T15:35:54.110Z,99326.84
2022-10-17T15:38:22.154Z,99327.27
2022-10-17T15:40:52.029Z,99328.30
2022-10-17T15:43:20.227Z,99328.73
2022-10-17T15:45:48.757Z,99332.91
2022-10-17T15:48:30.279Z,99330.17
2022-10-17T15:50:58.708Z,99335.73
2022-10-17T15:53:27.199Z,99337.86
2022-10-17T15:55:57.654Z,99340.05
2022-10-17T15:58:28.563Z,99345.48
2022-10-17T16:00:56.800Z,99342.80
2022-10-17T16:03:24.891Z,99348.59
2022-10-17T16:05:52.882Z,99349.34
2022-10-17T16:08:20.916Z,99349.24
2022-10-17T16:10:49.538Z,99351.59
2022-10-17T16:13:20.963Z,99354.83
2022-10-17T16:15:49.356Z,99355.88
2022-10-17T16:18:17.454Z,99355.24
2022-10-17T16:20:45.377Z,99353.32
2022-10-17T16:23:14.628Z,99359.92
2022-10-17T16:25:43.142Z,99358.21
2022-10-17T16:28:12.155Z,99357.17
2022-10-17T16:30:44.932Z,99357.77
2022-10-17T16:33:13.548Z,99361.73
2022-10-17T16:35:41.945Z,99363.17
2022-10-17T16:38:09.986Z,99362.32
2022-10-17T16:40:39.539Z,99361.92
2022-10-17T16:43:12.040Z,99362.98
2022-10-17T16:45:40.167Z,99371.16
2022-10-17T16:48:10.092Z,99369.59
2022-10-17T16:50:41.226Z,99368.95
2022-10-17T16:53:09.360Z,99366.92
2022-10-17T16:55:38.288Z,99369.41
2022-10-17T16:58:06.542Z,99370.36
2022-10-17T17:00:35.934Z,99372.20
2022-10-17T17:03:04.031Z,99372.33
2022-10-17T17:05:31.949Z,99380.09
2022-10-17T17:08:01.040Z,99385.13
2022-10-17T17:10:32.084Z,99391.66
2022-10-17T17:13:01.812Z,99390.64
2022-10-17T17:15:30.176Z,99392.55
2022-10-17T17:18:02.669Z,99392.58
2022-10-17T17:20:33.954Z,99389.96
2022-10-17T17:23:02.144Z,99388.05
2022-10-17T17:25:30.210Z,99387.61
2022-10-17T17:27:58.270Z,99387.50
2022-10-17T17:30:26.361Z,99391.09
2022-10-17T17:32:54.449Z,99397.02
2022-10-17T17:35:22.541Z,99397.32
2022-10-17T17:37:50.734Z,99401.23
2022-10-17T17:40:18.823Z,99401.55
2022-10-17T17:42:46.948Z,99402.92
2022-10-17T17:45:15.305Z,99404.04
2022-10-17T17:47:43.681Z,99407.63
2022-10-17T17:50:11.692Z,99406.16
2022-10-17T17:52:42.067Z,99405.69
2022-10-17T17:55:10.308Z,99410.41
2022-10-17T17:57:38.867Z,99408.09
2022-10-17T18:00:07.719Z,99413.08
2022-10-17T18:02:39.580Z,99416.20
2022-10-17T18:05:10.329Z,99414.09
2022-10-17T18:07:38.320Z,99411.69
2022-10-17T18:10:07.039Z,99412.43
2022-10-17T18:12:35.082Z,99408.48
2022-10-17T18:15:04.856Z,99406.09
2022-10-17T18:17:33.218Z,99405.27
2022-10-17T18:20:02.780Z,99405.46
2022-10-17T18:22:31.165Z,99406.29
2022-10-17T18:24:59.711Z,99404.92
2022-10-17T18:27:27.902Z,99408.84
2022-10-17T18:29:56.084Z,99413.16
2022-10-17T18:32:24.576Z,99411.52
2022-10-17T18:34:52.749Z,99413.46
2022-10-17T18:37:20.931Z,99417.59
2022-10-17T18:39:51.710Z,99418.20
2022-10-17T18:42:20.497Z,99415.91
2022-10-17T18:44:48.836Z,99415.52
2022-10-17T18:47:16.902Z,99412.93
2022-10-17T18:49:45.202Z,99414.88
2022-10-17T18:52:13.241Z,99411.84
2022-10-17T18:54:41.236Z,99412.11
2022-10-17T18:57:09.315Z,99418.46
2022-10-17T18:59:37.695Z,99420.02
2022-10-17T19:02:06.540Z,99420.41
2022-10-17T19:04:35.075Z,99422.95
2022-10-17T19:07:03.253Z,99423.55
2022-10-17T19:09:31.692Z,99423.63
2022-10-17T19:12:00.519Z,99427.33
2022-10-17T19:14:30.594Z,99423.92
2022-10-17T19:16:59.940Z,99421.20
2022-10-17T19:19:28.200Z,99424.05
2022-10-17T19:21:57.030Z,99424.42
2022-10-17T19:24:27.133Z,99426.63
2022-10-17T19:26:58.348Z,99431.00
2022-10-17T19:29:28.498Z,99431.42
2022-10-17T19:31:56.737Z,99437.16
2022-10-17T19:34:25.146Z,99441.58
2022-10-17T19:36:53.281Z,99439.72
2022-10-17T19:39:23.831Z,99437.27
2022-10-17T19:41:52.349Z,99439.43
2022-10-17T19:44:20.466Z,99438.77
2022-10-17T19:46:49.378Z,99442.04
2022-10-17T19:49:18.254Z,99436.27
2022-10-17T19:51:46.760Z,99438.89
2022-10-17T19:54:18.334Z,99440.13
2022-10-17T19:56:47.252Z,99432.83
2022-10-17T19:59:17.167Z,99432.91
2022-10-17T20:01:45.890Z,99433.02
2022-10-17T20:04:14.410Z,99430.39
2022-10-17T20:06:42.754Z,99430.58
2022-10-17T20:09:17.244Z,99429.46
2022-10-17T20:11:45.986Z,99430.59
2022-10-17T20:14:14.346Z,99434.86
2022-10-17T20:16:49.982Z,99433.79
2022-10-17T20:19:18.525Z,99435.42
2022-10-17T20:21:46.774Z,99430.40
2022-10-17T20:24:17.058Z,99426.56
2022-10-17T20:26:46.302Z,99429.41
2022-10-17T20:29:19.318Z,99430.48
2022-10-17T20:31:48.580Z,99428.84
2022-10-17T20:34:19.005Z,99428.40
2022-10-17T20:36:47.906Z,99428.92
2022-10-17T20:39:18.596Z,99429.33
2022-10-17T20:41:47.205Z,99429.48
2022-10-17T20:44:15.918Z,99431.61
2022-10-17T20:47:00.559Z,99433.88
2022-10-17T20:49:30.597Z,99432.63
2022-10-17T20:52:01.444Z,99429.80
2022-10-17T20:54:29.907Z,99429.13
2022-10-17T20:57:01.073Z,99430.49
2022-10-17T20:59:32.598Z,99430.52
2022-10-17T21:02:00.980Z,99431.42
2022-10-17T21:04:47.208Z,99428.61
2022-10-17T21:07:16.089Z,99427.94
2022-10-17T21:09:45.638Z,99425.75
2022-10-17T21:12:21.653Z,99426.84
2022-10-17T21:15:00.428Z,99424.55
2022-10-17T21:17:28.854Z,99426.63
2022-10-17T21:19:57.088Z,99423.45
2022-10-17T21:22:25.442Z,99426.84
2022-10-17T21:24:53.616Z,99428.30
2022-10-17T21:27:21.839Z,99425.31
2022-10-17T21:29:50.053Z,99428.15
2022-10-17T21:32:32.006Z,99427.02
2022-10-17T21:35:06.910Z,99427.39
2022-10-17T21:37:34.896Z,99428.67
2022-10-17T21:40:03.126Z,99429.08
2022-10-17T21:42:31.375Z,99430.72
2022-10-17T21:44:59.619Z,99429.85
2022-10-17T21:47:29.713Z,99428.69
2022-10-17T21:49:58.109Z,99429.99
2022-10-17T21:52:26.166Z,99428.05
2022-10-17T21:54:54.339Z,99429.40
2022-10-17T21:57:22.409Z,99426.21
2022-10-17T21:59:50.413Z,99426.57
2022-10-17T22:02:18.804Z,99426.57
2022-10-17T22:04:46.884Z,99426.14
2022-10-17T22:07:15.333Z,99422.63
2022-10-17T22:09:43.420Z,99422.25
2022-10-17T22:12:11.736Z,99421.22
2022-10-17T22:14:39.826Z,99420.48
2022-10-17T22:17:08.055Z,99417.45
2022-10-17T22:19:36.108Z,99416.50
2022-10-17T22:22:04.352Z,99418.10
2022-10-17T22:24:32.373Z,99417.27
2022-10-17T22:27:00.461Z,99418.54
2022-10-17T22:29:28.431Z,99416.80
2022-10-17T22:31:56.451Z,99416.83
2022-10-17T22:34:24.490Z,99412.91
2022-10-17T22:36:52.507Z,99408.89
2022-10-17T22:39:20.621Z,99413.50
2022-10-17T22:41:48.694Z,99411.35
2022-10-17T22:44:16.688Z,99412.91
2022-10-17T22:46:44.799Z,99414.23
2022-10-17T22:49:13.050Z,99413.55
2022-10-17T22:51:41.112Z,99415.09
2022-10-17T22:54:09.120Z,99411.02
2022-10-17T22:56:37.189Z,99410.48
2022-10-17T22:59:05.224Z,99407.80
2022-10-17T23:01:33.551Z,99402.91
2022-10-17T23:04:02.427Z,99400.61
2022-10-17T23:06:30.726Z,99400.69
2022-10-17T23:08:58.929Z,99398.87
2022-10-17T23:11:26.981Z,99398.92
2022-10-17T23:13:55.199Z,99400.52
2022-10-17T23:16:23.417Z,99396.60
2022-10-17T23:18:51.473Z,99395.45
2022-10-17T23:21:19.546Z,99400.03
2022-10-17T23:23:47.532Z,99403.13
2022-10-17T23:26:15.609Z,99401.59
2022-10-17T23:28:43.798Z,99401.31
2022-10-17T23:31:15.472Z,99403.58
2022-10-17T23:33:45.257Z,99404.77
2022-10-17T23:36:15.667Z,99406.00
2022-10-17T23:38:45.224Z,99406.46
2022-10-17T23:41:14.181Z,99404.23
2022-10-17T23:43:43.487Z,99403.95
2022-10-17T23:46:12.194Z,99401.20
2022-10-17T23:48:41.298Z,99393.17
2022-10-17T23:51:10.497Z,99391.67
2022-10-17T23:53:39.648Z,99391.98
2022-10-17T23:56:08.350Z,99388.02
2022-10-17T23:58:37.060Z,99389.47
